sensor_id;sensor_type;location;lat;lon;timestamp;P1;durP1;ratioP1;P2;durP2;ratioP2
40154;SDS011;25875;48.202;16.334;2023-12-20T00:00:25;27.80;;;23.67;;
40154;SDS011;25875;48.202;16.334;2023-12-20T00:02:52;29.27;;;24.23;;
40154;SDS011;25875;48.202;16.334;2023-12-20T00:05:19;30.30;;;24.90;;
40154;SDS011;25875;48.202;16.334;2023-12-20T00:07:47;28.08;;;24.15;;
40154;SDS011;25875;48.202;16.334;2023-12-20T00:10:13;28.65;;;24.27;;
40154;SDS011;25875;48.202;16.334;2023-12-20T00:12:40;28.77;;;23.65;;
40154;SDS011;25875;48.202;16.334;2023-12-20T00:15:07;30.27;;;25.67;;
40154;SDS011;25875;48.202;16.334;2023-12-20T00:17:34;27.73;;;24.67;;
40154;SDS011;25875;48.202;16.334;2023-12-20T00:20:01;27.77;;;22.50;;
40154;SDS011;25875;48.202;16.334;2023-12-20T00:22:27;29.35;;;24.90;;
40154;SDS011;25875;48.202;16.334;2023-12-20T00:24:55;26.92;;;23.42;;
40154;SDS011;25875;48.202;16.334;2023-12-20T00:27:22;34.25;;;25.10;;
40154;SDS011;25875;48.202;16.334;2023-12-20T00:29:49;29.45;;;23.73;;
40154;SDS011;25875;48.202;16.334;2023-12-20T00:32:15;27.92;;;24.67;;
40154;SDS011;25875;48.202;16.334;2023-12-20T00:34:43;26.20;;;23.33;;
40154;SDS011;25875;48.202;16.334;2023-12-20T00:37:09;27.63;;;23.00;;
40154;SDS011;25875;48.202;16.334;2023-12-20T00:39:36;28.52;;;22.55;;
40154;SDS011;25875;48.202;16.334;2023-12-20T00:42:04;27.23;;;23.13;;
40154;SDS011;25875;48.202;16.334;2023-12-20T00:44:31;29.85;;;23.13;;
40154;SDS011;25875;48.202;16.334;2023-12-20T00:46:58;29.83;;;23.10;;
40154;SDS011;25875;48.202;16.334;2023-12-20T00:49:24;28.05;;;22.48;;
40154;SDS011;25875;48.202;16.334;2023-12-20T00:51:51;27.55;;;22.98;;
40154;SDS011;25875;48.202;16.334;2023-12-20T00:54:18;28.63;;;22.90;;
40154;SDS011;25875;48.202;16.334;2023-12-20T00:56:44;26.80;;;22.65;;
40154;SDS011;25875;48.202;16.334;2023-12-20T00:59:13;26.58;;;22.92;;
40154;SDS011;25875;48.202;16.334;2023-12-20T01:01:39;26.85;;;22.40;;
40154;SDS011;25875;48.202;16.334;2023-12-20T01:04:07;26.73;;;22.60;;
40154;SDS011;25875;48.202;16.334;2023-12-20T01:06:33;25.58;;;22.88;;
40154;SDS011;25875;48.202;16.334;2023-12-20T01:09:00;25.55;;;21.45;;
40154;SDS011;25875;48.202;16.334;2023-12-20T01:11:27;26.67;;;21.92;;
40154;SDS011;25875;48.202;16.334;2023-12-20T01:13:54;29.70;;;22.95;;
40154;SDS011;25875;48.202;16.334;2023-12-20T01:16:22;27.80;;;21.85;;
40154;SDS011;25875;48.202;16.334;2023-12-20T01:18:48;27.60;;;23.85;;
40154;SDS011;25875;48.202;16.334;2023-12-20T01:21:15;28.73;;;22.38;;
40154;SDS011;25875;48.202;16.334;2023-12-20T01:23:42;25.08;;;21.00;;
40154;SDS011;25875;48.202;16.334;2023-12-20T01:26:08;25.38;;;20.90;;
40154;SDS011;25875;48.202;16.334;2023-12-20T01:28:35;27.60;;;22.52;;
40154;SDS011;25875;48.202;16.334;2023-12-20T01:31:02;26.45;;;22.08;;
40154;SDS011;25875;48.202;16.334;2023-12-20T01:33:30;28.20;;;20.58;;
40154;SDS011;25875;48.202;16.334;2023-12-20T01:35:57;23.95;;;20.35;;
40154;SDS011;25875;48.202;16.334;2023-12-20T01:38:24;24.27;;;21.45;;
40154;SDS011;25875;48.202;16.334;2023-12-20T01:40:50;25.15;;;20.60;;
40154;SDS011;25875;48.202;16.334;2023-12-20T01:43:17;26.35;;;20.63;;
40154;SDS011;25875;48.202;16.334;2023-12-20T01:45:43;24.92;;;19.73;;
40154;SDS011;25875;48.202;16.334;2023-12-20T01:48:10;25.75;;;21.48;;
40154;SDS011;25875;48.202;16.334;2023-12-20T01:50:38;25.52;;;19.75;;
40154;SDS011;25875;48.202;16.334;2023-12-20T01:53:06;23.10;;;19.77;;
40154;SDS011;25875;48.202;16.334;2023-12-20T01:55:35;24.10;;;20.15;;
40154;SDS011;25875;48.202;16.334;2023-12-20T01:58:05;23.35;;;18.58;;
40154;SDS011;25875;48.202;16.334;2023-12-20T02:00:33;22.85;;;18.67;;
40154;SDS011;25875;48.202;16.334;2023-12-20T02:03:00;21.83;;;18.88;;
40154;SDS011;25875;48.202;16.334;2023-12-20T02:05:28;25.60;;;19.13;;
40154;SDS011;25875;48.202;16.334;2023-12-20T02:07:57;24.98;;;21.63;;
40154;SDS011;25875;48.202;16.334;2023-12-20T02:10:24;26.40;;;21.45;;
40154;SDS011;25875;48.202;16.334;2023-12-20T02:12:51;24.25;;;19.30;;
40154;SDS011;25875;48.202;16.334;2023-12-20T02:15:18;27.90;;;21.60;;
40154;SDS011;25875;48.202;16.334;2023-12-20T02:17:45;23.98;;;19.88;;
40154;SDS011;25875;48.202;16.334;2023-12-20T02:20:13;24.40;;;20.95;;
40154;SDS011;25875;48.202;16.334;2023-12-20T02:22:41;25.13;;;20.52;;
40154;SDS011;25875;48.202;16.334;2023-12-20T02:25:08;22.23;;;18.88;;
40154;SDS011;25875;48.202;16.334;2023-12-20T02:27:34;25.38;;;20.48;;
40154;SDS011;25875;48.202;16.334;2023-12-20T02:30:01;23.40;;;20.63;;
40154;SDS011;25875;48.202;16.334;2023-12-20T02:32:28;22.27;;;19.42;;
40154;SDS011;25875;48.202;16.334;2023-12-20T02:34:55;24.90;;;20.08;;
40154;SDS011;25875;48.202;16.334;2023-12-20T02:37:22;22.92;;;17.60;;
40154;SDS011;25875;48.202;16.334;2023-12-20T02:39:50;19.95;;;17.00;;
40154;SDS011;25875;48.202;16.334;2023-12-20T02:42:17;23.92;;;18.98;;
40154;SDS011;25875;48.202;16.334;2023-12-20T02:44:43;21.73;;;17.67;;
40154;SDS011;25875;48.202;16.334;2023-12-20T02:47:10;21.52;;;17.33;;
40154;SDS011;25875;48.202;16.334;2023-12-20T02:49:37;21.02;;;17.73;;
40154;SDS011;25875;48.202;16.334;2023-12-20T02:52:04;18.23;;;15.30;;
40154;SDS011;25875;48.202;16.334;2023-12-20T02:54:31;17.65;;;12.40;;
40154;SDS011;25875;48.202;16.334;2023-12-20T02:56:59;9.68;;;7.57;;
40154;SDS011;25875;48.202;16.334;2023-12-20T02:59:26;5.53;;;4.57;;
40154;SDS011;25875;48.202;16.334;2023-12-20T03:01:52;3.78;;;3.22;;
40154;SDS011;25875;48.202;16.334;2023-12-20T03:04:19;4.13;;;3.55;;
40154;SDS011;25875;48.202;16.334;2023-12-20T03:06:45;4.88;;;3.65;;
40154;SDS011;25875;48.202;16.334;2023-12-20T03:09:12;10.10;;;8.73;;
40154;SDS011;25875;48.202;16.334;2023-12-20T03:11:39;12.57;;;10.25;;
40154;SDS011;25875;48.202;16.334;2023-12-20T03:14:07;11.63;;;10.43;;
40154;SDS011;25875;48.202;16.334;2023-12-20T03:16:33;13.88;;;10.82;;
40154;SDS011;25875;48.202;16.334;2023-12-20T03:19:00;12.88;;;11.57;;
40154;SDS011;25875;48.202;16.334;2023-12-20T03:21:27;12.27;;;10.75;;
40154;SDS011;25875;48.202;16.334;2023-12-20T03:23:54;13.52;;;11.60;;
40154;SDS011;25875;48.202;16.334;2023-12-20T03:26:21;14.93;;;11.93;;
40154;SDS011;25875;48.202;16.334;2023-12-20T03:28:48;12.60;;;11.25;;
40154;SDS011;25875;48.202;16.334;2023-12-20T03:31:16;13.88;;;11.13;;
40154;SDS011;25875;48.202;16.334;2023-12-20T03:33:43;13.15;;;11.75;;
40154;SDS011;25875;48.202;16.334;2023-12-20T03:36:09;13.65;;;11.13;;
40154;SDS011;25875;48.202;16.334;2023-12-20T03:38:36;12.63;;;11.32;;
40154;SDS011;25875;48.202;16.334;2023-12-20T03:41:03;12.77;;;11.32;;
40154;SDS011;25875;48.202;16.334;2023-12-20T03:43:30;12.30;;;10.77;;
40154;SDS011;25875;48.202;16.334;2023-12-20T03:45:57;13.15;;;11.13;;
40154;SDS011;25875;48.202;16.334;2023-12-20T03:48:25;13.85;;;11.52;;
40154;SDS011;25875;48.202;16.334;2023-12-20T03:50:51;12.15;;;10.85;;
40154;SDS011;25875;48.202;16.334;2023-12-20T03:53:18;13.48;;;12.02;;
40154;SDS011;25875;48.202;16.334;2023-12-20T03:55:45;11.43;;;10.13;;
40154;SDS011;25875;48.202;16.334;2023-12-20T03:58:11;12.27;;;11.00;;
40154;SDS011;25875;48.202;16.334;2023-12-20T04:00:38;12.82;;;10.85;;
40154;SDS011;25875;48.202;16.334;2023-12-20T04:03:05;10.95;;;9.88;;
40154;SDS011;25875;48.202;16.334;2023-12-20T04:05:33;12.48;;;10.60;;
40154;SDS011;25875;48.202;16.334;2023-12-20T04:08:01;11.10;;;10.00;;
40154;SDS011;25875;48.202;16.334;2023-12-20T04:10:28;11.48;;;10.02;;
40154;SDS011;25875;48.202;16.334;2023-12-20T04:12:55;11.20;;;9.50;;
40154;SDS011;25875;48.202;16.334;2023-12-20T04:15:21;11.23;;;10.05;;
40154;SDS011;25875;48.202;16.334;2023-12-20T04:17:48;11.52;;;10.10;;
40154;SDS011;25875;48.202;16.334;2023-12-20T04:20:14;12.27;;;10.40;;
40154;SDS011;25875;48.202;16.334;2023-12-20T04:22:42;13.73;;;10.52;;
40154;SDS011;25875;48.202;16.334;2023-12-20T04:25:09;13.07;;;10.35;;
40154;SDS011;25875;48.202;16.334;2023-12-20T04:27:36;13.20;;;10.48;;
40154;SDS011;25875;48.202;16.334;2023-12-20T04:30:03;11.70;;;9.90;;
40154;SDS011;25875;48.202;16.334;2023-12-20T04:32:30;12.80;;;10.00;;
40154;SDS011;25875;48.202;16.334;2023-12-20T04:34:56;10.25;;;7.03;;
40154;SDS011;25875;48.202;16.334;2023-12-20T04:37:23;8.43;;;6.20;;
40154;SDS011;25875;48.202;16.334;2023-12-20T04:39:51;7.72;;;6.28;;
40154;SDS011;25875;48.202;16.334;2023-12-20T04:42:18;7.65;;;6.55;;
40154;SDS011;25875;48.202;16.334;2023-12-20T04:44:44;8.93;;;5.75;;
40154;SDS011;25875;48.202;16.334;2023-12-20T04:47:11;7.78;;;5.53;;
40154;SDS011;25875;48.202;16.334;2023-12-20T04:49:37;7.85;;;5.63;;
40154;SDS011;25875;48.202;16.334;2023-12-20T04:52:04;7.03;;;5.03;;
40154;SDS011;25875;48.202;16.334;2023-12-20T04:54:31;5.05;;;4.00;;
40154;SDS011;25875;48.202;16.334;2023-12-20T04:56:59;4.88;;;3.92;;
40154;SDS011;25875;48.202;16.334;2023-12-20T04:59:26;5.47;;;4.20;;
40154;SDS011;25875;48.202;16.334;2023-12-20T05:01:53;5.70;;;3.90;;
40154;SDS011;25875;48.202;16.334;2023-12-20T05:04:19;5.22;;;3.90;;
40154;SDS011;25875;48.202;16.334;2023-12-20T05:06:46;6.22;;;3.92;;
40154;SDS011;25875;48.202;16.334;2023-12-20T05:09:14;6.25;;;3.70;;
40154;SDS011;25875;48.202;16.334;2023-12-20T05:11:41;5.45;;;4.28;;
40154;SDS011;25875;48.202;16.334;2023-12-20T05:14:09;4.72;;;3.72;;
40154;SDS011;25875;48.202;16.334;2023-12-20T05:16:36;4.13;;;3.20;;
40154;SDS011;25875;48.202;16.334;2023-12-20T05:19:02;4.43;;;3.55;;
40154;SDS011;25875;48.202;16.334;2023-12-20T05:21:31;5.43;;;3.80;;
40154;SDS011;25875;48.202;16.334;2023-12-20T05:23:58;5.20;;;3.45;;
40154;SDS011;25875;48.202;16.334;2023-12-20T05:26:25;6.00;;;3.78;;
40154;SDS011;25875;48.202;16.334;2023-12-20T05:28:51;4.53;;;3.90;;
40154;SDS011;25875;48.202;16.334;2023-12-20T05:31:19;7.07;;;3.85;;
40154;SDS011;25875;48.202;16.334;2023-12-20T05:33:46;4.80;;;3.40;;
40154;SDS011;25875;48.202;16.334;2023-12-20T05:36:13;6.00;;;4.03;;
40154;SDS011;25875;48.202;16.334;2023-12-20T05:38:40;5.03;;;3.83;;
40154;SDS011;25875;48.202;16.334;2023-12-20T05:41:07;5.43;;;3.80;;
40154;SDS011;25875;48.202;16.334;2023-12-20T05:43:33;8.52;;;5.80;;
40154;SDS011;25875;48.202;16.334;2023-12-20T05:46:00;5.32;;;3.78;;
40154;SDS011;25875;48.202;16.334;2023-12-20T05:48:28;5.18;;;3.40;;
40154;SDS011;25875;48.202;16.334;2023-12-20T05:50:54;5.28;;;4.00;;
40154;SDS011;25875;48.202;16.334;2023-12-20T05:53:21;6.30;;;3.92;;
40154;SDS011;25875;48.202;16.334;2023-12-20T05:55:48;7.75;;;4.82;;
40154;SDS011;25875;48.202;16.334;2023-12-20T05:58:14;6.72;;;4.40;;
40154;SDS011;25875;48.202;16.334;2023-12-20T06:00:41;5.22;;;4.13;;
40154;SDS011;25875;48.202;16.334;2023-12-20T06:03:08;4.90;;;3.50;;
40154;SDS011;25875;48.202;16.334;2023-12-20T06:05:36;4.57;;;3.50;;
40154;SDS011;25875;48.202;16.334;2023-12-20T06:08:02;4.72;;;3.50;;
40154;SDS011;25875;48.202;16.334;2023-12-20T06:10:29;5.22;;;3.80;;
40154;SDS011;25875;48.202;16.334;2023-12-20T06:12:56;4.55;;;3.65;;
40154;SDS011;25875;48.202;16.334;2023-12-20T06:15:24;4.82;;;3.28;;
40154;SDS011;25875;48.202;16.334;2023-12-20T06:17:50;4.10;;;3.58;;
40154;SDS011;25875;48.202;16.334;2023-12-20T06:20:17;4.88;;;3.38;;
40154;SDS011;25875;48.202;16.334;2023-12-20T06:22:45;4.57;;;3.25;;
40154;SDS011;25875;48.202;16.334;2023-12-20T06:25:12;4.38;;;3.53;;
40154;SDS011;25875;48.202;16.334;2023-12-20T06:27:38;4.80;;;3.50;;
40154;SDS011;25875;48.202;16.334;2023-12-20T06:30:06;5.45;;;4.30;;
40154;SDS011;25875;48.202;16.334;2023-12-20T06:32:34;5.55;;;3.58;;
40154;SDS011;25875;48.202;16.334;2023-12-20T06:35:01;5.55;;;3.78;;
40154;SDS011;25875;48.202;16.334;2023-12-20T06:37:27;4.47;;;3.17;;
40154;SDS011;25875;48.202;16.334;2023-12-20T06:39:55;4.68;;;3.50;;
40154;SDS011;25875;48.202;16.334;2023-12-20T06:42:22;6.15;;;3.50;;
40154;SDS011;25875;48.202;16.334;2023-12-20T06:44:49;4.32;;;3.25;;
40154;SDS011;25875;48.202;16.334;2023-12-20T06:47:15;5.32;;;3.92;;
40154;SDS011;25875;48.202;16.334;2023-12-20T06:49:42;3.60;;;3.10;;
40154;SDS011;25875;48.202;16.334;2023-12-20T06:52:08;3.92;;;3.22;;
40154;SDS011;25875;48.202;16.334;2023-12-20T06:54:35;4.30;;;3.35;;
40154;SDS011;25875;48.202;16.334;2023-12-20T06:57:03;5.15;;;3.47;;
40154;SDS011;25875;48.202;16.334;2023-12-20T06:59:30;7.60;;;3.70;;
40154;SDS011;25875;48.202;16.334;2023-12-20T07:01:57;4.03;;;3.33;;
40154;SDS011;25875;48.202;16.334;2023-12-20T07:04:23;4.82;;;3.83;;
40154;SDS011;25875;48.202;16.334;2023-12-20T07:06:50;5.40;;;3.65;;
40154;SDS011;25875;48.202;16.334;2023-12-20T07:09:19;4.85;;;3.95;;
40154;SDS011;25875;48.202;16.334;2023-12-20T07:11:45;4.95;;;3.60;;
40154;SDS011;25875;48.202;16.334;2023-12-20T07:14:13;4.85;;;4.10;;
40154;SDS011;25875;48.202;16.334;2023-12-20T07:16:40;10.85;;;4.07;;
40154;SDS011;25875;48.202;16.334;2023-12-20T07:19:06;4.65;;;3.78;;
40154;SDS011;25875;48.202;16.334;2023-12-20T07:21:33;4.53;;;3.90;;
40154;SDS011;25875;48.202;16.334;2023-12-20T07:24:00;5.00;;;4.05;;
40154;SDS011;25875;48.202;16.334;2023-12-20T07:26:26;4.40;;;3.65;;
40154;SDS011;25875;48.202;16.334;2023-12-20T07:28:53;4.60;;;3.83;;
40154;SDS011;25875;48.202;16.334;2023-12-20T07:31:21;5.80;;;3.90;;
40154;SDS011;25875;48.202;16.334;2023-12-20T07:33:49;5.47;;;3.53;;
40154;SDS011;25875;48.202;16.334;2023-12-20T07:36:15;6.35;;;3.72;;
40154;SDS011;25875;48.202;16.334;2023-12-20T07:38:42;7.22;;;4.13;;
40154;SDS011;25875;48.202;16.334;2023-12-20T07:41:09;6.43;;;3.75;;
40154;SDS011;25875;48.202;16.334;2023-12-20T07:43:36;5.10;;;3.83;;
40154;SDS011;25875;48.202;16.334;2023-12-20T07:46:05;6.15;;;3.90;;
40154;SDS011;25875;48.202;16.334;2023-12-20T07:48:34;5.20;;;3.78;;
40154;SDS011;25875;48.202;16.334;2023-12-20T07:51:01;6.82;;;4.55;;
40154;SDS011;25875;48.202;16.334;2023-12-20T07:53:28;5.20;;;3.72;;
40154;SDS011;25875;48.202;16.334;2023-12-20T07:55:55;6.07;;;4.05;;
40154;SDS011;25875;48.202;16.334;2023-12-20T07:58:21;5.82;;;4.15;;
40154;SDS011;25875;48.202;16.334;2023-12-20T08:00:48;4.85;;;3.80;;
40154;SDS011;25875;48.202;16.334;2023-12-20T08:03:15;7.00;;;4.70;;
40154;SDS011;25875;48.202;16.334;2023-12-20T08:05:43;6.05;;;4.75;;
40154;SDS011;25875;48.202;16.334;2023-12-20T08:08:09;5.60;;;3.92;;
40154;SDS011;25875;48.202;16.334;2023-12-20T08:10:36;6.72;;;4.70;;
40154;SDS011;25875;48.202;16.334;2023-12-20T08:13:03;6.43;;;4.97;;
40154;SDS011;25875;48.202;16.334;2023-12-20T08:15:29;6.90;;;4.40;;
40154;SDS011;25875;48.202;16.334;2023-12-20T08:17:56;4.70;;;4.03;;
40154;SDS011;25875;48.202;16.334;2023-12-20T08:20:23;5.53;;;4.10;;
40154;SDS011;25875;48.202;16.334;2023-12-20T08:22:51;5.68;;;3.95;;
40154;SDS011;25875;48.202;16.334;2023-12-20T08:25:17;4.68;;;3.70;;
40154;SDS011;25875;48.202;16.334;2023-12-20T08:27:44;5.07;;;3.92;;
40154;SDS011;25875;48.202;16.334;2023-12-20T08:30:11;5.10;;;4.18;;
40154;SDS011;25875;48.202;16.334;2023-12-20T08:32:37;4.85;;;4.05;;
40154;SDS011;25875;48.202;16.334;2023-12-20T08:35:04;5.95;;;4.22;;
40154;SDS011;25875;48.202;16.334;2023-12-20T08:37:31;8.10;;;4.97;;
40154;SDS011;25875;48.202;16.334;2023-12-20T08:39:59;6.30;;;4.63;;
40154;SDS011;25875;48.202;16.334;2023-12-20T08:42:26;6.13;;;4.32;;
40154;SDS011;25875;48.202;16.334;2023-12-20T08:44:56;5.72;;;5.13;;
40154;SDS011;25875;48.202;16.334;2023-12-20T08:47:23;5.57;;;4.47;;
40154;SDS011;25875;48.202;16.334;2023-12-20T08:49:50;7.13;;;4.20;;
40154;SDS011;25875;48.202;16.334;2023-12-20T08:52:18;4.93;;;4.10;;
40154;SDS011;25875;48.202;16.334;2023-12-20T08:54:45;6.00;;;4.22;;
40154;SDS011;25875;48.202;16.334;2023-12-20T08:57:13;5.95;;;4.40;;
40154;SDS011;25875;48.202;16.334;2023-12-20T08:59:39;5.40;;;4.03;;
40154;SDS011;25875;48.202;16.334;2023-12-20T09:02:06;6.40;;;4.63;;
40154;SDS011;25875;48.202;16.334;2023-12-20T09:04:33;5.90;;;4.05;;
40154;SDS011;25875;48.202;16.334;2023-12-20T09:06:59;6.18;;;3.95;;
40154;SDS011;25875;48.202;16.334;2023-12-20T09:09:27;5.20;;;3.75;;
40154;SDS011;25875;48.202;16.334;2023-12-20T09:11:53;4.55;;;3.60;;
40154;SDS011;25875;48.202;16.334;2023-12-20T09:14:22;4.88;;;4.32;;
40154;SDS011;25875;48.202;16.334;2023-12-20T09:16:48;4.72;;;4.22;;
40154;SDS011;25875;48.202;16.334;2023-12-20T09:19:16;5.82;;;3.15;;
40154;SDS011;25875;48.202;16.334;2023-12-20T09:21:43;4.35;;;3.60;;
40154;SDS011;25875;48.202;16.334;2023-12-20T09:24:09;5.38;;;3.75;;
40154;SDS011;25875;48.202;16.334;2023-12-20T09:26:36;3.95;;;3.35;;
40154;SDS011;25875;48.202;16.334;2023-12-20T09:29:04;4.93;;;3.28;;
40154;SDS011;25875;48.202;16.334;2023-12-20T09:31:35;4.18;;;3.10;;
40154;SDS011;25875;48.202;16.334;2023-12-20T09:34:02;4.05;;;2.92;;
40154;SDS011;25875;48.202;16.334;2023-12-20T09:36:29;4.57;;;2.80;;
40154;SDS011;25875;48.202;16.334;2023-12-20T09:38:59;4.75;;;3.13;;
40154;SDS011;25875;48.202;16.334;2023-12-20T09:41:26;3.10;;;2.30;;
40154;SDS011;25875;48.202;16.334;2023-12-20T09:43:56;3.10;;;2.40;;
40154;SDS011;25875;48.202;16.334;2023-12-20T09:46:28;3.70;;;2.55;;
40154;SDS011;25875;48.202;16.334;2023-12-20T09:49:00;4.05;;;2.67;;
40154;SDS011;25875;48.202;16.334;2023-12-20T09:51:27;3.70;;;3.08;;
40154;SDS011;25875;48.202;16.334;2023-12-20T09:53:55;3.45;;;2.70;;
40154;SDS011;25875;48.202;16.334;2023-12-20T09:56:23;3.20;;;2.40;;
40154;SDS011;25875;48.202;16.334;2023-12-20T09:58:51;3.30;;;2.63;;
40154;SDS011;25875;48.202;16.334;2023-12-20T10:01:19;4.05;;;2.67;;
40154;SDS011;25875;48.202;16.334;2023-12-20T10:03:47;3.90;;;3.00;;
40154;SDS011;25875;48.202;16.334;2023-12-20T10:06:15;3.65;;;2.75;;
40154;SDS011;25875;48.202;16.334;2023-12-20T10:08:42;4.18;;;3.17;;
40154;SDS011;25875;48.202;16.334;2023-12-20T10:11:08;4.00;;;3.38;;
40154;SDS011;25875;48.202;16.334;2023-12-20T10:13:38;4.07;;;2.90;;
40154;SDS011;25875;48.202;16.334;2023-12-20T10:16:05;3.80;;;3.35;;
40154;SDS011;25875;48.202;16.334;2023-12-20T10:18:32;3.72;;;3.15;;
40154;SDS011;25875;48.202;16.334;2023-12-20T10:20:59;4.22;;;3.00;;
40154;SDS011;25875;48.202;16.334;2023-12-20T10:23:27;4.22;;;2.83;;
40154;SDS011;25875;48.202;16.334;2023-12-20T10:25:57;3.38;;;2.45;;
40154;SDS011;25875;48.202;16.334;2023-12-20T10:28:24;4.43;;;3.40;;
40154;SDS011;25875;48.202;16.334;2023-12-20T10:30:52;4.65;;;3.83;;
40154;SDS011;25875;48.202;16.334;2023-12-20T10:33:23;5.05;;;3.63;;
40154;SDS011;25875;48.202;16.334;2023-12-20T10:35:50;3.60;;;2.70;;
40154;SDS011;25875;48.202;16.334;2023-12-20T10:38:18;3.63;;;3.00;;
40154;SDS011;25875;48.202;16.334;2023-12-20T10:40:46;4.55;;;2.85;;
40154;SDS011;25875;48.202;16.334;2023-12-20T10:43:13;4.25;;;2.85;;
40154;SDS011;25875;48.202;16.334;2023-12-20T10:45:41;3.40;;;2.70;;
40154;SDS011;25875;48.202;16.334;2023-12-20T10:48:09;3.75;;;2.53;;
40154;SDS011;25875;48.202;16.334;2023-12-20T10:50:37;3.38;;;2.88;;
40154;SDS011;25875;48.202;16.334;2023-12-20T10:53:05;4.10;;;3.00;;
40154;SDS011;25875;48.202;16.334;2023-12-20T10:55:33;3.40;;;2.67;;
40154;SDS011;25875;48.202;16.334;2023-12-20T10:58:02;3.47;;;2.90;;
40154;SDS011;25875;48.202;16.334;2023-12-20T11:00:32;3.60;;;2.80;;
40154;SDS011;25875;48.202;16.334;2023-12-20T11:03:01;3.15;;;2.40;;
40154;SDS011;25875;48.202;16.334;2023-12-20T11:05:32;3.63;;;3.22;;
40154;SDS011;25875;48.202;16.334;2023-12-20T11:08:06;3.85;;;3.08;;
40154;SDS011;25875;48.202;16.334;2023-12-20T11:10:37;3.80;;;3.10;;
40154;SDS011;25875;48.202;16.334;2023-12-20T11:13:15;3.70;;;3.17;;
40154;SDS011;25875;48.202;16.334;2023-12-20T11:15:46;3.90;;;3.05;;
40154;SDS011;25875;48.202;16.334;2023-12-20T11:18:13;3.60;;;2.83;;
40154;SDS011;25875;48.202;16.334;2023-12-20T11:20:41;3.50;;;2.80;;
40154;SDS011;25875;48.202;16.334;2023-12-20T11:23:09;3.78;;;2.95;;
40154;SDS011;25875;48.202;16.334;2023-12-20T11:28:22;3.55;;;2.63;;
40154;SDS011;25875;48.202;16.334;2023-12-20T11:30:50;3.75;;;2.78;;
40154;SDS011;25875;48.202;16.334;2023-12-20T11:33:21;3.00;;;2.42;;
40154;SDS011;25875;48.202;16.334;2023-12-20T11:35:48;3.40;;;2.75;;
40154;SDS011;25875;48.202;16.334;2023-12-20T11:38:14;3.35;;;2.47;;
40154;SDS011;25875;48.202;16.334;2023-12-20T11:40:41;3.60;;;2.50;;
40154;SDS011;25875;48.202;16.334;2023-12-20T11:43:09;4.30;;;2.70;;
40154;SDS011;25875;48.202;16.334;2023-12-20T11:45:38;3.20;;;2.47;;
40154;SDS011;25875;48.202;16.334;2023-12-20T11:48:15;3.42;;;2.38;;
40154;SDS011;25875;48.202;16.334;2023-12-20T11:50:42;3.33;;;2.55;;
40154;SDS011;25875;48.202;16.334;2023-12-20T11:53:09;3.33;;;2.60;;
40154;SDS011;25875;48.202;16.334;2023-12-20T11:55:36;3.05;;;2.47;;
40154;SDS011;25875;48.202;16.334;2023-12-20T11:58:03;2.90;;;2.28;;
40154;SDS011;25875;48.202;16.334;2023-12-20T12:00:30;4.22;;;2.72;;
40154;SDS011;25875;48.202;16.334;2023-12-20T12:02:59;3.50;;;2.65;;
40154;SDS011;25875;48.202;16.334;2023-12-20T12:05:28;3.85;;;2.53;;
40154;SDS011;25875;48.202;16.334;2023-12-20T12:07:54;3.42;;;3.00;;
40154;SDS011;25875;48.202;16.334;2023-12-20T12:10:21;3.00;;;2.10;;
40154;SDS011;25875;48.202;16.334;2023-12-20T12:12:48;2.80;;;2.33;;
40154;SDS011;25875;48.202;16.334;2023-12-20T12:15:14;3.28;;;2.50;;
40154;SDS011;25875;48.202;16.334;2023-12-20T12:17:41;3.30;;;2.15;;
40154;SDS011;25875;48.202;16.334;2023-12-20T12:20:10;2.60;;;2.00;;
40154;SDS011;25875;48.202;16.334;2023-12-20T12:22:37;3.25;;;2.20;;
40154;SDS011;25875;48.202;16.334;2023-12-20T12:25:10;3.55;;;2.50;;
40154;SDS011;25875;48.202;16.334;2023-12-20T12:27:39;2.70;;;2.10;;
40154;SDS011;25875;48.202;16.334;2023-12-20T12:30:07;2.88;;;2.25;;
40154;SDS011;25875;48.202;16.334;2023-12-20T12:32:35;2.90;;;2.10;;
40154;SDS011;25875;48.202;16.334;2023-12-20T12:35:03;3.03;;;2.25;;
40154;SDS011;25875;48.202;16.334;2023-12-20T12:37:33;2.72;;;2.05;;
40154;SDS011;25875;48.202;16.334;2023-12-20T12:40:00;2.95;;;2.05;;
40154;SDS011;25875;48.202;16.334;2023-12-20T12:42:27;3.28;;;2.17;;
40154;SDS011;25875;48.202;16.334;2023-12-20T12:44:54;3.55;;;2.30;;
40154;SDS011;25875;48.202;16.334;2023-12-20T12:47:21;3.85;;;2.17;;
40154;SDS011;25875;48.202;16.334;2023-12-20T12:49:49;3.25;;;2.10;;
40154;SDS011;25875;48.202;16.334;2023-12-20T12:52:17;3.15;;;2.00;;
40154;SDS011;25875;48.202;16.334;2023-12-20T12:54:45;2.75;;;2.17;;
40154;SDS011;25875;48.202;16.334;2023-12-20T12:57:13;3.35;;;2.08;;
40154;SDS011;25875;48.202;16.334;2023-12-20T12:59:40;3.10;;;2.28;;
40154;SDS011;25875;48.202;16.334;2023-12-20T13:02:07;3.25;;;2.28;;
40154;SDS011;25875;48.202;16.334;2023-12-20T13:04:34;2.80;;;2.03;;
40154;SDS011;25875;48.202;16.334;2023-12-20T13:07:00;3.20;;;2.47;;
40154;SDS011;25875;48.202;16.334;2023-12-20T13:09:27;3.30;;;2.00;;
40154;SDS011;25875;48.202;16.334;2023-12-20T13:11:55;3.38;;;2.10;;
40154;SDS011;25875;48.202;16.334;2023-12-20T13:14:22;3.05;;;2.00;;
40154;SDS011;25875;48.202;16.334;2023-12-20T13:16:48;3.10;;;2.10;;
40154;SDS011;25875;48.202;16.334;2023-12-20T13:19:15;2.58;;;2.17;;
40154;SDS011;25875;48.202;16.334;2023-12-20T13:21:42;2.88;;;2.20;;
40154;SDS011;25875;48.202;16.334;2023-12-20T13:24:08;3.20;;;2.28;;
40154;SDS011;25875;48.202;16.334;2023-12-20T13:26:35;2.60;;;2.08;;
40154;SDS011;25875;48.202;16.334;2023-12-20T13:29:03;2.95;;;2.05;;
40154;SDS011;25875;48.202;16.334;2023-12-20T13:31:30;2.72;;;2.30;;
40154;SDS011;25875;48.202;16.334;2023-12-20T13:33:56;2.50;;;1.85;;
40154;SDS011;25875;48.202;16.334;2023-12-20T13:36:23;3.30;;;2.17;;
40154;SDS011;25875;48.202;16.334;2023-12-20T13:38:50;3.00;;;2.20;;
40154;SDS011;25875;48.202;16.334;2023-12-20T13:41:16;2.78;;;2.10;;
40154;SDS011;25875;48.202;16.334;2023-12-20T13:43:43;3.10;;;2.30;;
40154;SDS011;25875;48.202;16.334;2023-12-20T13:46:12;3.10;;;2.28;;
40154;SDS011;25875;48.202;16.334;2023-12-20T13:48:39;3.45;;;2.22;;
40154;SDS011;25875;48.202;16.334;2023-12-20T13:51:06;2.95;;;2.10;;
40154;SDS011;25875;48.202;16.334;2023-12-20T13:53:33;3.08;;;2.00;;
40154;SDS011;25875;48.202;16.334;2023-12-20T13:55:59;3.10;;;2.00;;
40154;SDS011;25875;48.202;16.334;2023-12-20T13:58:26;3.63;;;2.83;;
40154;SDS011;25875;48.202;16.334;2023-12-20T14:00:53;2.90;;;2.30;;
40154;SDS011;25875;48.202;16.334;2023-12-20T14:03:21;4.05;;;2.50;;
40154;SDS011;25875;48.202;16.334;2023-12-20T14:05:47;2.92;;;2.13;;
40154;SDS011;25875;48.202;16.334;2023-12-20T14:08:14;4.15;;;2.28;;
40154;SDS011;25875;48.202;16.334;2023-12-20T14:10:41;3.00;;;2.40;;
40154;SDS011;25875;48.202;16.334;2023-12-20T14:13:07;2.70;;;2.08;;
40154;SDS011;25875;48.202;16.334;2023-12-20T14:15:34;3.67;;;2.20;;
40154;SDS011;25875;48.202;16.334;2023-12-20T14:18:02;3.78;;;2.35;;
40154;SDS011;25875;48.202;16.334;2023-12-20T14:20:32;3.53;;;2.50;;
40154;SDS011;25875;48.202;16.334;2023-12-20T14:23:00;3.20;;;2.20;;
40154;SDS011;25875;48.202;16.334;2023-12-20T14:25:27;3.38;;;2.33;;
40154;SDS011;25875;48.202;16.334;2023-12-20T14:27:53;3.15;;;2.20;;